createdAt,value
2022-09-30T00:00:55.125Z,81.82
2022-09-30T00:04:19.751Z,81.86
2022-09-30T00:07:42.460Z,81.66
2022-09-30T00:11:06.475Z,81.64
2022-09-30T00:14:27.718Z,81.25
2022-09-30T00:17:49.398Z,81.48
2022-09-30T00:21:11.766Z,81.47
2022-09-30T00:24:34.502Z,81.48
2022-09-30T00:27:55.819Z,81.70
2022-09-30T00:31:19.511Z,81.91
2022-09-30T00:34:41.412Z,81.81
2022-09-30T00:38:03.211Z,81.64
2022-09-30T00:41:27.596Z,81.75
2022-09-30T00:44:53.350Z,81.70
2022-09-30T00:48:20.131Z,81.58
2022-09-30T00:51:45.351Z,81.41
2022-09-30T00:55:11.054Z,81.74
2022-09-30T00:58:40.096Z,81.74
2022-09-30T01:02:02.577Z,81.61
2022-09-30T01:05:26.481Z,81.95
2022-09-30T01:08:48.491Z,81.58
2022-09-30T01:12:13.433Z,81.72
2022-09-30T01:16:00.202Z,81.59
2022-09-30T01:19:59.000Z,81.53
2022-09-30T01:24:05.177Z,81.58
2022-09-30T01:27:48.631Z,81.55
2022-09-30T01:31:24.362Z,82.03
2022-09-30T01:35:00.083Z,81.94
2022-09-30T01:38:29.462Z,81.87
2022-09-30T01:41:56.990Z,81.64
2022-09-30T01:45:27.304Z,81.55
2022-09-30T01:48:58.233Z,81.52
2022-09-30T01:52:24.301Z,81.21
2022-09-30T01:55:54.588Z,81.33
2022-09-30T01:59:22.079Z,81.60
2022-09-30T02:02:49.690Z,82.09
2022-09-30T02:06:16.769Z,81.95
2022-09-30T02:09:42.531Z,81.90
2022-09-30T02:13:10.741Z,81.85
2022-09-30T02:16:38.705Z,81.65
2022-09-30T02:20:03.767Z,82.03
2022-09-30T02:23:30.125Z,82.08
2022-09-30T02:26:55.196Z,81.85
2022-09-30T02:30:17.086Z,81.69
2022-09-30T02:33:43.583Z,82.08
2022-09-30T02:37:11.163Z,81.72
2022-09-30T02:40:39.902Z,81.85
2022-09-30T02:44:03.469Z,81.87
2022-09-30T02:47:31.985Z,81.34
2022-09-30T02:50:58.930Z,81.98
2022-09-30T02:54:32.225Z,82.11
2022-09-30T02:58:01.825Z,81.91
2022-09-30T03:01:23.962Z,82.14
2022-09-30T03:04:47.172Z,81.95
2022-09-30T03:08:08.774Z,81.93
2022-09-30T03:11:30.835Z,82.35
2022-09-30T03:15:11.555Z,82.28
2022-09-30T03:18:46.936Z,82.11
2022-09-30T03:22:24.680Z,82.26
2022-09-30T03:25:57.355Z,81.87
2022-09-30T03:29:25.776Z,81.56
2022-09-30T03:33:09.275Z,81.06
2022-09-30T03:36:39.456Z,81.15
2022-09-30T03:40:06.038Z,81.42
2022-09-30T03:43:32.342Z,81.25
2022-09-30T03:46:57.425Z,81.26
2022-09-30T03:50:23.155Z,81.41
2022-09-30T03:53:46.887Z,82.14
2022-09-30T03:57:08.108Z,82.32
2022-09-30T04:00:32.536Z,82.22
2022-09-30T04:03:56.766Z,82.07
2022-09-30T04:07:20.240Z,82.17
2022-09-30T04:10:42.686Z,81.86
2022-09-30T04:14:05.249Z,82.10
2022-09-30T04:17:26.906Z,82.21
2022-09-30T04:20:48.565Z,81.75
2022-09-30T04:24:11.199Z,82.13
2022-09-30T04:27:32.776Z,82.26
2022-09-30T04:30:54.095Z,82.25
2022-09-30T04:34:15.484Z,82.67
2022-09-30T04:37:36.954Z,82.76
2022-09-30T04:41:03.349Z,82.86
2022-09-30T04:44:24.934Z,82.61
2022-09-30T04:47:46.237Z,82.47
2022-09-30T04:51:07.758Z,82.19
2022-09-30T04:54:29.759Z,82.77
2022-09-30T04:57:52.809Z,81.79
2022-09-30T05:01:15.744Z,81.91
2022-09-30T05:04:37.250Z,82.17
2022-09-30T05:08:01.544Z,81.96
2022-09-30T05:11:23.979Z,81.71
2022-09-30T05:14:46.576Z,81.26
2022-09-30T05:18:08.277Z,81.57
2022-09-30T05:21:28.810Z,81.84
2022-09-30T05:24:50.452Z,81.80
2022-09-30T05:28:12.291Z,81.63
2022-09-30T05:31:34.260Z,81.82
2022-09-30T05:34:56.364Z,82.45
2022-09-30T05:38:19.210Z,82.17
2022-09-30T05:41:40.686Z,81.75
2022-09-30T05:45:02.773Z,81.70
2022-09-30T05:48:25.737Z,81.44
2022-09-30T05:51:48.082Z,80.52
2022-09-30T05:55:11.433Z,80.34
2022-09-30T05:58:33.671Z,79.78
2022-09-30T06:01:55.610Z,79.47
2022-09-30T06:05:17.559Z,79.38
2022-09-30T06:08:39.027Z,79.57
2022-09-30T06:12:01.920Z,80.70
2022-09-30T06:15:23.278Z,81.19
2022-09-30T06:18:44.883Z,82.04
2022-09-30T06:22:06.483Z,82.45
2022-09-30T06:25:28.413Z,82.89
2022-09-30T06:28:51.782Z,82.85
2022-09-30T06:32:14.141Z,83.16
2022-09-30T06:35:35.457Z,83.95
2022-09-30T06:38:56.938Z,84.04
2022-09-30T06:42:18.780Z,84.42
2022-09-30T06:45:41.511Z,84.73
2022-09-30T06:49:12.778Z,85.09
2022-09-30T06:52:35.827Z,85.42
2022-09-30T06:55:58.268Z,85.53
2022-09-30T06:59:19.858Z,85.73
2022-09-30T07:02:43.147Z,86.02
2022-09-30T07:06:06.963Z,86.14
2022-09-30T07:09:28.445Z,86.34
2022-09-30T07:12:52.028Z,86.34
2022-09-30T07:16:14.302Z,86.48
2022-09-30T07:19:37.151Z,87.04
2022-09-30T07:22:59.367Z,86.99
2022-09-30T07:26:23.150Z,86.86
2022-09-30T07:30:07.583Z,86.85
2022-09-30T07:33:31.205Z,86.61
2022-09-30T07:36:54.254Z,86.69
2022-09-30T07:40:16.258Z,86.44
2022-09-30T07:43:40.078Z,86.37
2022-09-30T07:47:01.857Z,86.49
2022-09-30T07:50:23.412Z,86.31
2022-09-30T07:53:49.365Z,86.82
2022-09-30T07:57:11.872Z,87.05
2022-09-30T08:00:49.008Z,87.04
2022-09-30T08:04:12.482Z,87.22
2022-09-30T08:07:34.687Z,86.99
2022-09-30T08:11:01.230Z,87.07
2022-09-30T08:14:25.114Z,87.82
2022-09-30T08:17:46.592Z,87.64
2022-09-30T08:21:08.344Z,87.42
2022-09-30T08:24:29.635Z,88.04
2022-09-30T08:27:53.361Z,88.06
2022-09-30T08:31:17.352Z,87.97
2022-09-30T08:34:39.155Z,88.59
2022-09-30T08:38:00.984Z,88.60
2022-09-30T08:41:38.197Z,88.48
2022-09-30T08:45:16.023Z,88.38
2022-09-30T08:48:47.948Z,88.86
2022-09-30T08:52:30.204Z,88.37
2022-09-30T08:56:02.706Z,88.31
2022-09-30T08:59:33.647Z,87.83
2022-09-30T09:02:59.912Z,87.55
2022-09-30T09:06:28.184Z,87.73
2022-09-30T09:09:59.557Z,87.61
2022-09-30T09:13:40.900Z,87.89
2022-09-30T09:17:16.242Z,87.92
2022-09-30T09:20:43.552Z,87.91
2022-09-30T09:24:07.585Z,87.77
2022-09-30T09:27:42.638Z,87.81
2022-09-30T09:31:05.374Z,88.54
2022-09-30T09:34:28.410Z,88.40
2022-09-30T09:38:20.217Z,88.36
2022-09-30T09:41:47.550Z,88.68
2022-09-30T09:45:18.948Z,88.67
2022-09-30T09:48:40.938Z,87.94
2022-09-30T09:52:37.339Z,87.89
2022-09-30T09:56:00.927Z,88.35
2022-09-30T09:59:23.036Z,87.38
2022-09-30T10:02:44.556Z,86.62
2022-09-30T10:06:09.276Z,82.49
2022-09-30T10:09:33.831Z,80.45
2022-09-30T10:12:57.417Z,77.10
2022-09-30T10:16:29.633Z,76.04
2022-09-30T10:19:52.648Z,71.50
2022-09-30T10:23:21.406Z,69.98
2022-09-30T10:26:48.585Z,69.78
2022-09-30T10:30:12.416Z,68.60
2022-09-30T10:33:43.331Z,69.24
2022-09-30T10:37:16.643Z,67.11
2022-09-30T10:40:38.142Z,62.79
2022-09-30T10:44:03.142Z,63.63
2022-09-30T10:47:32.572Z,63.12
2022-09-30T10:50:58.034Z,61.23
2022-09-30T10:54:45.267Z,60.92
2022-09-30T10:58:24.663Z,61.57
2022-09-30T11:01:55.197Z,62.06
2022-09-30T11:05:26.850Z,60.38
2022-09-30T11:08:56.915Z,63.57
2022-09-30T11:12:25.489Z,63.18
2022-09-30T11:15:58.354Z,62.16
2022-09-30T11:19:27.382Z,59.58
2022-09-30T11:22:57.828Z,60.15
2022-09-30T11:26:33.127Z,59.10
2022-09-30T11:30:04.757Z,58.37
2022-09-30T11:33:53.381Z,58.02
2022-09-30T11:37:27.245Z,58.81
2022-09-30T11:40:59.660Z,59.39
2022-09-30T11:44:33.916Z,58.90
2022-09-30T11:48:12.670Z,57.74
2022-09-30T11:51:45.154Z,58.19
2022-09-30T11:55:28.949Z,58.33
2022-09-30T11:58:55.481Z,56.67
2022-09-30T12:02:30.467Z,56.08
2022-09-30T12:05:56.131Z,54.38
2022-09-30T12:09:23.373Z,54.07
2022-09-30T12:12:48.488Z,54.49
2022-09-30T12:16:16.663Z,54.71
2022-09-30T12:19:45.048Z,55.01
2022-09-30T12:23:15.523Z,55.04
2022-09-30T12:26:37.061Z,53.82
2022-09-30T12:30:19.226Z,54.48
2022-09-30T12:33:58.722Z,53.41
2022-09-30T12:37:38.408Z,52.83
2022-09-30T12:41:09.229Z,54.13
2022-09-30T12:44:59.335Z,53.39
2022-09-30T12:48:24.583Z,53.46
2022-09-30T12:51:53.850Z,52.83
2022-09-30T12:55:25.517Z,51.89
2022-09-30T12:58:50.676Z,53.92
2022-09-30T13:02:30.245Z,53.75
2022-09-30T13:05:59.186Z,53.72
2022-09-30T13:09:23.521Z,53.56
2022-09-30T13:12:46.867Z,51.91
2022-09-30T13:16:10.967Z,53.78
2022-09-30T13:19:36.340Z,54.06
2022-09-30T13:22:58.669Z,52.71
2022-09-30T13:26:46.353Z,52.37
2022-09-30T13:30:36.713Z,52.38
2022-09-30T13:34:11.846Z,53.17
2022-09-30T13:37:42.251Z,52.59
2022-09-30T13:41:12.128Z,52.78
2022-09-30T13:44:41.173Z,52.62
2022-09-30T13:48:13.643Z,53.04
2022-09-30T13:51:36.061Z,52.06
2022-09-30T13:55:00.856Z,53.04
2022-09-30T13:58:44.495Z,52.94
2022-09-30T14:02:33.728Z,52.21
2022-09-30T14:06:06.323Z,52.60
2022-09-30T14:09:44.439Z,53.56
2022-09-30T14:13:20.030Z,53.27
2022-09-30T14:17:17.321Z,53.68
2022-09-30T14:20:55.119Z,54.21
2022-09-30T14:24:17.760Z,53.43
2022-09-30T14:27:53.311Z,53.05
2022-09-30T14:31:16.242Z,52.02
2022-09-30T14:34:38.134Z,52.51
2022-09-30T14:38:04.626Z,51.85
2022-09-30T14:41:28.231Z,51.41
2022-09-30T14:44:50.238Z,51.60
2022-09-30T14:48:15.787Z,52.06
2022-09-30T14:51:43.258Z,52.26
2022-09-30T14:55:23.433Z,52.49
2022-09-30T14:58:44.752Z,54.89
2022-09-30T15:02:16.906Z,55.39
2022-09-30T15:05:38.674Z,56.74
2022-09-30T15:09:06.757Z,58.36
2022-09-30T15:12:29.837Z,59.15
2022-09-30T15:15:51.570Z,59.39
2022-09-30T15:19:18.541Z,59.30
2022-09-30T15:22:40.034Z,58.97
2022-09-30T15:26:02.204Z,58.00
2022-09-30T15:29:24.840Z,58.84
2022-09-30T15:32:50.240Z,61.39
2022-09-30T15:36:17.802Z,61.88
2022-09-30T15:40:00.785Z,62.78
2022-09-30T15:43:34.336Z,63.03
2022-09-30T15:47:04.958Z,62.99
2022-09-30T15:50:41.203Z,63.34
2022-09-30T15:54:17.470Z,64.76
2022-09-30T15:57:45.500Z,65.70
2022-09-30T16:01:16.922Z,66.57
2022-09-30T16:04:40.292Z,66.18
2022-09-30T16:08:02.006Z,66.79
2022-09-30T16:11:27.503Z,66.41
2022-09-30T16:14:52.255Z,66.71
2022-09-30T16:18:19.680Z,66.09
2022-09-30T16:21:47.251Z,66.96
2022-09-30T16:25:17.930Z,68.27
2022-09-30T16:28:39.472Z,68.58
2022-09-30T16:32:01.668Z,69.26
2022-09-30T16:35:25.121Z,70.28
2022-09-30T16:38:48.286Z,70.41
2022-09-30T16:42:14.417Z,70.39
2022-09-30T16:45:36.634Z,70.95
2022-09-30T16:48:58.185Z,71.11
2022-09-30T16:52:19.536Z,71.19
2022-09-30T16:55:43.092Z,71.65
2022-09-30T16:59:08.173Z,72.17
2022-09-30T17:02:29.755Z,72.52
2022-09-30T17:05:52.961Z,73.30
2022-09-30T17:09:14.527Z,73.40
2022-09-30T17:12:38.750Z,73.67
2022-09-30T17:16:01.843Z,74.16
2022-09-30T17:19:23.134Z,73.97
2022-09-30T17:22:45.692Z,74.42
2022-09-30T17:26:07.753Z,75.10
2022-09-30T17:29:32.649Z,75.82
2022-09-30T17:32:54.890Z,75.64
2022-09-30T17:36:16.314Z,76.32
2022-09-30T17:39:38.153Z,76.54
2022-09-30T17:43:07.453Z,76.84
2022-09-30T17:46:41.414Z,76.50
2022-09-30T17:50:05.963Z,76.76
2022-09-30T17:53:29.240Z,77.65
2022-09-30T17:56:51.018Z,77.74
2022-09-30T18:00:13.383Z,77.59
2022-09-30T18:03:36.506Z,78.17
2022-09-30T18:06:57.999Z,78.46
2022-09-30T18:10:19.904Z,78.30
2022-09-30T18:13:41.460Z,78.42
2022-09-30T18:17:04.466Z,78.81
2022-09-30T18:20:27.058Z,78.92
2022-09-30T18:23:48.368Z,79.38
2022-09-30T18:27:09.594Z,79.00
2022-09-30T18:30:30.927Z,79.29
2022-09-30T18:33:52.234Z,79.18
2022-09-30T18:37:14.874Z,79.79
2022-09-30T18:40:37.944Z,80.43
2022-09-30T18:44:02.562Z,80.21
2022-09-30T18:47:24.490Z,80.61
2022-09-30T18:50:47.442Z,80.68
2022-09-30T18:54:11.206Z,80.99
2022-09-30T18:57:34.090Z,80.89
2022-09-30T19:00:55.804Z,81.08
2022-09-30T19:04:17.772Z,81.24
2022-09-30T19:07:39.585Z,81.02
2022-09-30T19:11:11.983Z,81.14
2022-09-30T19:14:35.480Z,80.78
2022-09-30T19:17:58.645Z,80.54
2022-09-30T19:21:20.219Z,80.12
2022-09-30T19:24:44.163Z,80.23
2022-09-30T19:28:06.753Z,80.92
2022-09-30T19:31:31.150Z,80.74
2022-09-30T19:35:04.802Z,81.17
2022-09-30T19:38:37.166Z,81.52
2022-09-30T19:42:03.215Z,81.04
2022-09-30T19:45:28.081Z,80.86
2022-09-30T19:48:49.697Z,80.54
2022-09-30T19:52:19.763Z,80.37
2022-09-30T19:55:50.308Z,80.57
2022-09-30T19:59:12.687Z,80.70
2022-09-30T20:02:35.689Z,80.70
2022-09-30T20:05:59.179Z,81.12
2022-09-30T20:09:20.871Z,81.28
2022-09-30T20:12:43.393Z,81.23
2022-09-30T20:16:07.835Z,81.28
2022-09-30T20:19:30.870Z,81.43
2022-09-30T20:22:53.222Z,81.33
2022-09-30T20:26:17.213Z,81.99
2022-09-30T20:29:39.180Z,82.00
2022-09-30T20:33:01.936Z,82.16
2022-09-30T20:36:26.335Z,81.82
2022-09-30T20:39:47.681Z,81.65
2022-09-30T20:43:10.032Z,81.26
2022-09-30T20:46:32.910Z,81.00
2022-09-30T20:49:54.555Z,80.91
2022-09-30T20:53:17.454Z,80.76
2022-09-30T20:57:05.425Z,80.87
2022-09-30T21:00:21.411Z,80.41
2022-09-30T21:03:44.858Z,80.37
2022-09-30T21:07:06.836Z,80.80
2022-09-30T21:10:30.201Z,80.43
2022-09-30T21:13:53.442Z,80.62
2022-09-30T21:17:15.131Z,80.36
2022-09-30T21:20:37.013Z,80.59
2022-09-30T21:23:59.895Z,80.56
2022-09-30T21:27:23.208Z,80.38
2022-09-30T21:30:44.709Z,80.97
2022-09-30T21:34:06.668Z,80.86
2022-09-30T21:37:28.072Z,81.03
2022-09-30T21:40:49.173Z,81.18
2022-09-30T21:44:11.804Z,81.35
2022-09-30T21:47:33.221Z,81.30
2022-09-30T21:50:55.236Z,81.32
2022-09-30T21:54:17.443Z,81.65
2022-09-30T21:57:38.865Z,81.53
2022-09-30T22:01:03.206Z,81.70
2022-09-30T22:04:24.954Z,81.50
2022-09-30T22:07:46.189Z,81.56
2022-09-30T22:11:09.183Z,82.29
2022-09-30T22:14:30.847Z,82.07
2022-09-30T22:17:53.556Z,82.47
2022-09-30T22:21:15.942Z,82.01
2022-09-30T22:24:38.094Z,81.92
2022-09-30T22:27:59.595Z,82.41
2022-09-30T22:31:22.362Z,82.14
2022-09-30T22:35:02.769Z,82.12
2022-09-30T22:38:24.745Z,82.21
2022-09-30T22:41:46.101Z,81.75
2022-09-30T22:45:08.447Z,81.60
2022-09-30T22:48:30.434Z,81.80
2022-09-30T22:51:54.210Z,81.76
2022-09-30T22:55:15.970Z,82.07
2022-09-30T22:58:37.517Z,82.06
2022-09-30T23:01:58.981Z,82.04
2022-09-30T23:05:21.002Z,82.01
2022-09-30T23:08:44.563Z,82.15
2022-09-30T23:12:06.327Z,81.75
2022-09-30T23:15:28.197Z,81.90
2022-09-30T23:18:49.748Z,82.30
2022-09-30T23:22:11.188Z,82.47
2022-09-30T23:25:34.218Z,82.39
2022-09-30T23:28:58.199Z,82.39
2022-09-30T23:32:19.663Z,82.14
2022-09-30T23:35:46.229Z,82.51
2022-09-30T23:39:12.755Z,81.99
2022-09-30T23:42:35.614Z,82.34
2022-09-30T23:45:57.147Z,82.14
2022-09-30T23:49:19.694Z,82.50
2022-09-30T23:52:41.947Z,82.15
2022-09-30T23:56:06.711Z,82.32
2022-09-30T23:59:29.913Z,82.60
